Historique des mesures à Cassis (13260), France
Quotidien Résumé Mars 12, 2017 Unités:  US    Métrique   Métrique/US
« Précédent (Jour)
Suivant (Jour) »
Quotidien Hebdomadaire Mensuel Annuel Période au choix
  Maximum: Minimum: Moyenne:
Température: 32 °F 51.1 °F 53.2 °F
Point de rosée: 32 °F 43.2 °F 45.7 °F
Humidité: Humidity % 68 % 71 %
Vitesse du vent: WindSpeedKMH mph 0.0 mph 1 mph
Rafales: WindSpeedGustKMH mph - -
Vent:- - WSW
Pression: 0 in 29.8 in -
Précipitations: 0 in    
Historical Graphs
 
 
Mesures pour : Mars 12, 2017
Heure Temperature Point de rosée Pression Vent Vitesse du vent Rafales Humidité Pluie (par heure) Conditions
32 °F 32 °F 0 in Calm     Humidity % 0 in SoftwareType W/m2
00:11 52.7 °F 43.2 °F 29.9 in NNW 1.8 mph 1.8 mph 70 % 0 in open2300-1.11 W/m2
01:10 52.3 °F 43.5 °F 29.9 in Calm     72 % 0 in open2300-1.11 W/m2
02:11 51.6 °F 43.3 °F 29.9 in Calm   2.1 mph 73 % 0 in open2300-1.11 W/m2
03:10 51.6 °F 43.5 °F 29.9 in Calm     74 % 0 in open2300-1.11 W/m2
04:11 51.8 °F 44.2 °F 29.9 in WNW 2.1 mph 2.1 mph 75 % 0 in open2300-1.11 W/m2
05:10 51.6 °F 44.8 °F 29.9 in Calm   4.0 mph 77 % 0 in open2300-1.11 W/m2
06:11 51.1 °F 44.4 °F 29.9 in Calm   2.1 mph 78 % 0 in open2300-1.11 W/m2
07:10 51.4 °F 44.4 °F 29.9 in NNW 1.4 mph 1.4 mph 77 % 0 in open2300-1.11 W/m2
08:11 52 °F 45 °F 29.9 in Calm     77 % 0 in open2300-1.11 W/m2
09:10 54.3 °F 47.1 °F 29.9 in Calm     77 % 0 in open2300-1.11 W/m2
10:11 56.5 °F 47.8 °F 29.9 in NNE 5.8 mph 5.8 mph 73 % 0 in open2300-1.11 W/m2
11:10 56.8 °F 46.2 °F 29.9 in Calm     68 % 0 in open2300-1.11 W/m2
12:11 57.4 °F 48 °F 29.9 in West 2.1 mph 5.0 mph 71 % 0 in open2300-1.11 W/m2
13:10 57.7 °F 49.1 °F 29.9 in Calm     73 % 0 in open2300-1.11 W/m2
14:11 57.9 °F 50.4 °F 29.8 in SSE 1.8 mph 1.8 mph 76 % 0 in open2300-1.11 W/m2
15:10 59.4 °F 51.1 °F 29.8 in SSW 4.0 mph 4.0 mph 74 % 0 in open2300-1.11 W/m2
19:10 56.8 °F 48.9 °F 29.8 in Calm     75 % 0 in open2300-1.11 W/m2
20:11 55.6 °F 48 °F 29.8 in Calm     76 % 0 in open2300-1.11 W/m2
21:10 55.2 °F 47.7 °F 29.8 in Calm     76 % 0 in open2300-1.11 W/m2
22:11 53.8 °F 46.8 °F 29.8 in Calm     77 % 0 in open2300-1.11 W/m2
23:10 52.7 °F 46 °F 29.8 in NW 3.2 mph 4.3 mph 78 % 0 in open2300-1.11 W/m2
Observations météo à CASSIS
WU-History script by Weather Underground - 1 mb